createdAt,value
2018-07-22T00:10:25.709Z,44
2018-07-22T00:16:06.525Z,44
2018-07-22T00:21:26.566Z,44
2018-07-22T00:26:57.957Z,44
2018-07-22T00:32:27.404Z,44
2018-07-22T00:38:03.378Z,44
2018-07-22T00:43:29.237Z,44
2018-07-22T00:49:00.488Z,44
2018-07-22T00:54:31.060Z,44
2018-07-22T01:00:02.649Z,44
2018-07-22T01:05:37.912Z,44
2018-07-22T01:11:02.708Z,44
2018-07-22T01:16:32.833Z,44
2018-07-22T01:22:02.482Z,45
2018-07-22T01:27:33.379Z,45
2018-07-22T01:33:04.280Z,45
2018-07-22T01:38:34.215Z,45
2018-07-22T01:44:05.023Z,45
2018-07-22T01:49:41.197Z,45
2018-07-22T01:55:07.063Z,46
2018-07-22T02:00:36.892Z,46
2018-07-22T02:06:06.477Z,46
2018-07-22T02:11:41.371Z,46
2018-07-22T02:17:06.298Z,46
2018-07-22T02:22:37.050Z,47
2018-07-22T02:28:07.188Z,47
2018-07-22T02:33:36.899Z,47
2018-07-22T02:39:06.584Z,47
2018-07-22T02:44:37.444Z,47
2018-07-22T02:50:07.815Z,47
2018-07-22T02:55:37.120Z,48
2018-07-22T03:01:08.272Z,48
2018-07-22T03:06:43.753Z,48
2018-07-22T03:12:14.565Z,48
2018-07-22T03:17:40.433Z,49
2018-07-22T03:23:11.182Z,49
2018-07-22T03:28:47.228Z,49
2018-07-22T03:34:13.121Z,50
2018-07-22T03:39:43.576Z,50
2018-07-22T03:45:15.700Z,50
2018-07-22T03:50:44.787Z,50
2018-07-22T03:56:15.510Z,50
2018-07-22T04:01:44.703Z,51
2018-07-22T04:07:15.697Z,51
2018-07-22T04:12:46.274Z,52
2018-07-22T04:18:16.910Z,52
2018-07-22T04:23:47.144Z,52
2018-07-22T04:29:17.474Z,52
2018-07-22T04:34:48.293Z,52
2018-07-22T04:40:23.047Z,52
2018-07-22T04:45:53.981Z,53
2018-07-22T04:51:24.045Z,53
2018-07-22T04:56:53.838Z,53
2018-07-22T05:02:19.051Z,54
2018-07-22T05:07:49.095Z,54
2018-07-22T05:13:19.640Z,54
2018-07-22T05:18:55.732Z,54
2018-07-22T05:24:21.692Z,55
2018-07-22T05:29:52.395Z,55
2018-07-22T05:35:23.633Z,55
2018-07-22T05:40:53.194Z,55
2018-07-22T05:46:22.651Z,55
2018-07-22T05:51:52.432Z,55
2018-07-22T05:57:28.153Z,55
2018-07-22T06:02:54.039Z,55
2018-07-22T06:08:24.922Z,56
2018-07-22T06:13:55.058Z,56
2018-07-22T06:19:26.612Z,56
2018-07-22T06:24:55.673Z,56
2018-07-22T06:30:31.834Z,56
2018-07-22T06:35:57.519Z,56
2018-07-22T06:41:32.436Z,56
2018-07-22T06:46:57.441Z,55
2018-07-22T06:52:27.641Z,55
2018-07-22T06:57:57.346Z,55
2018-07-22T07:03:28.278Z,55
2018-07-22T07:09:03.304Z,55
2018-07-22T07:14:34.337Z,55
2018-07-22T07:20:05.653Z,55
2018-07-22T07:25:30.658Z,54
2018-07-22T07:31:00.467Z,54
2018-07-22T07:36:31.634Z,53
2018-07-22T07:42:02.841Z,53
2018-07-22T07:47:37.723Z,52
2018-07-22T07:53:02.808Z,52
2018-07-22T07:58:32.948Z,51
2018-07-22T08:04:03.193Z,51
2018-07-22T08:09:39.293Z,50
2018-07-22T08:15:06.588Z,50
2018-07-22T08:20:35.895Z,49
2018-07-22T08:26:06.825Z,49
2018-07-22T08:31:37.994Z,48
2018-07-22T08:48:10.968Z,46
2018-07-22T08:53:43.139Z,45
2018-07-22T08:59:13.325Z,45
2018-07-22T09:04:43.478Z,44
2018-07-22T09:10:14.933Z,43
2018-07-22T10:27:33.943Z,37
2018-07-22T20:11:58.192Z,59
2018-07-22T20:17:28.999Z,59
2018-07-22T20:22:59.964Z,59
2018-07-22T20:28:35.491Z,59
2018-07-22T20:34:05.622Z,60
2018-07-22T20:39:30.170Z,60
2018-07-22T20:45:00.043Z,60
2018-07-22T20:50:29.738Z,60
2018-07-22T20:56:00.576Z,60
2018-07-22T21:01:31.514Z,61
2018-07-22T21:07:01.214Z,61
2018-07-22T21:12:37.074Z,61
2018-07-22T21:18:01.983Z,61
2018-07-22T21:23:32.504Z,61
2018-07-22T21:29:03.459Z,61
2018-07-22T21:34:33.029Z,61
2018-07-22T21:40:02.971Z,62
2018-07-22T21:45:38.616Z,62
2018-07-22T21:51:04.394Z,62
2018-07-22T21:56:35.084Z,62
2018-07-22T22:02:09.976Z,62
2018-07-22T22:07:35.881Z,62
2018-07-22T22:13:05.542Z,63
2018-07-22T22:18:35.290Z,63
2018-07-22T22:24:04.761Z,63
2018-07-22T22:29:34.494Z,63
2018-07-22T22:35:09.239Z,63
2018-07-22T22:40:34.958Z,63
2018-07-22T22:46:04.597Z,63
2018-07-22T22:51:35.335Z,63
2018-07-22T22:57:05.025Z,64
2018-07-22T23:02:34.979Z,64
2018-07-22T23:08:04.679Z,64
2018-07-22T23:13:39.075Z,64
2018-07-22T23:19:04.033Z,64
2018-07-22T23:24:33.430Z,64
2018-07-22T23:30:04.353Z,64
2018-07-22T23:35:39.051Z,64
2018-07-22T23:41:04.702Z,64
2018-07-22T23:46:34.325Z,65
2018-07-22T23:52:03.677Z,65
2018-07-22T23:57:33.310Z,65
